CheckWX is a tool to help pilots better visualize weather data.  It is not intended as a substitute for an official pre-flight weather briefing.

16:16:30 UTC

KTBR METAR
Statesboro-Bulloch County Airport
Statesboro, Georgia, USA
Current

22 mins ago

KTBR 261555Z AUTO 00000KT 10SM CLR 34/17 A3013 RMK AO2 T03400165
Observed
May-26 @ 15:55 UTC
Visibility
10 SM
Flight Rules
VFR
Cloud Levels
  • Clear skies
Temperature
34°C / 93°F
Dewpoint
17°C / 63°F
Humidity
36%
Altimeter
30.13" Hg
Pressure
1020.32 hPa
Previous

42 mins ago

KTBR 261535Z AUTO 09003KT 10SM CLR 34/17 A3014 RMK AO2 T03380167
Observed
May-26 @ 15:35 UTC
Wind
  • 090° at 3 KTS
Visibility
10 SM
Flight Rules
VFR
Cloud Levels
  • Clear skies
Temperature
34°C / 93°F
Dewpoint
17°C / 63°F
Humidity
36%
Altimeter
30.14" Hg
Pressure
1020.62 hPa
Previous

1 hour ago

KTBR 261515Z AUTO 06004KT 10SM CLR 33/17 A3015 RMK AO2 T03320173
Observed
May-26 @ 15:15 UTC
Wind
  • 060° at 4 KTS
Visibility
10 SM
Flight Rules
VFR
Cloud Levels
  • Clear skies
Temperature
33°C / 91°F
Dewpoint
17°C / 63°F
Humidity
38%
Altimeter
30.15" Hg
Pressure
1021.02 hPa